createdAt,value
2022-11-06T00:04:07.012Z,26.25
2022-11-06T00:09:13.650Z,21.55
2022-11-06T00:14:17.279Z,21.58
2022-11-06T00:19:19.538Z,24.38
2022-11-06T00:24:21.737Z,18.90
2022-11-06T00:29:24.036Z,15.75
2022-11-06T00:34:26.752Z,19.27
2022-11-06T00:39:29.031Z,18.58
2022-11-06T00:44:31.492Z,16.15
2022-11-06T00:49:33.663Z,27.67
2022-11-06T00:54:35.852Z,22.45
2022-11-06T00:59:38.210Z,14.77
2022-11-06T01:04:40.550Z,24.48
2022-11-06T01:09:42.969Z,16.75
2022-11-06T01:14:45.211Z,17.23
2022-11-06T01:19:48.625Z,18.42
2022-11-06T01:24:51.748Z,16.95
2022-11-06T01:29:55.747Z,17.23
2022-11-06T01:34:58.094Z,16.33
2022-11-06T01:40:00.716Z,16.02
2022-11-06T01:45:15.827Z,13.40
2022-11-06T01:50:19.258Z,10.40
2022-11-06T01:55:30.887Z,15.57
2022-11-06T02:00:33.629Z,13.30
2022-11-06T02:05:37.117Z,13.30
2022-11-06T02:10:40.160Z,12.65
2022-11-06T02:15:59.292Z,16.55
2022-11-06T02:21:32.794Z,11.57
2022-11-06T02:26:51.676Z,12.88
2022-11-06T02:32:00.733Z,13.02
2022-11-06T02:37:09.885Z,12.32
2022-11-06T02:42:15.880Z,14.52
2022-11-06T02:47:20.960Z,12.07
2022-11-06T02:52:31.041Z,14.77
2022-11-06T02:57:38.009Z,10.90
2022-11-06T03:02:45.309Z,12.75
2022-11-06T03:07:55.813Z,12.23
2022-11-06T03:13:09.312Z,11.27
2022-11-06T03:18:36.555Z,12.10
2022-11-06T03:23:49.056Z,10.57
2022-11-06T03:29:30.868Z,9.55
2022-11-06T03:34:43.478Z,11.95
2022-11-06T03:39:53.847Z,12.45
2022-11-06T03:45:03.596Z,11.45
2022-11-06T03:55:17.617Z,7.50
2022-11-06T04:00:21.144Z,9.18
2022-11-06T04:05:25.246Z,9.02
2022-11-06T04:10:47.221Z,8.27
2022-11-06T04:15:55.191Z,9.55
2022-11-06T04:21:27.034Z,8.90
2022-11-06T04:26:38.342Z,11.32
2022-11-06T04:31:50.243Z,10.65
2022-11-06T04:37:09.348Z,14.55
2022-11-06T04:42:19.789Z,11.07
2022-11-06T04:47:24.821Z,14.23
2022-11-06T04:52:29.179Z,9.13
2022-11-06T04:57:31.600Z,12.90
2022-11-06T05:02:34.097Z,10.32
2022-11-06T05:07:36.600Z,11.23
2022-11-06T05:12:38.828Z,10.82
2022-11-06T05:17:40.990Z,10.95
2022-11-06T05:22:59.168Z,15.77
2022-11-06T05:28:03.066Z,11.27
2022-11-06T05:33:05.284Z,13.93
2022-11-06T05:38:07.629Z,10.75
2022-11-06T05:43:09.847Z,11.57
2022-11-06T05:48:12.255Z,15.10
2022-11-06T05:53:14.881Z,13.13
2022-11-06T05:58:17.261Z,15.10
2022-11-06T06:03:19.503Z,17.10
2022-11-06T06:08:21.746Z,13.00
2022-11-06T06:13:24.064Z,14.77
2022-11-06T06:18:26.232Z,15.20
2022-11-06T06:23:28.396Z,13.75
2022-11-06T06:28:30.772Z,14.73
2022-11-06T06:33:33.470Z,12.63
2022-11-06T06:38:35.799Z,18.42
2022-11-06T06:43:38.069Z,16.30
2022-11-06T06:48:40.275Z,20.13
2022-11-06T06:53:42.528Z,19.92
2022-11-06T06:58:44.988Z,16.15
2022-11-06T07:03:47.284Z,15.57
2022-11-06T07:08:49.606Z,16.98
2022-11-06T07:13:51.809Z,14.32
2022-11-06T07:18:54.179Z,14.65
2022-11-06T07:23:56.421Z,19.83
2022-11-06T07:28:58.596Z,17.73
2022-11-06T07:34:00.844Z,13.85
2022-11-06T07:39:03.058Z,20.33
2022-11-06T07:44:05.446Z,20.08
2022-11-06T07:49:07.796Z,20.15
2022-11-06T07:54:12.258Z,17.88
2022-11-06T07:59:14.453Z,13.38
2022-11-06T08:04:16.633Z,18.08
2022-11-06T08:09:18.853Z,15.43
2022-11-06T08:14:21.191Z,16.02
2022-11-06T08:19:23.364Z,19.73
2022-11-06T08:24:25.563Z,18.42
2022-11-06T08:29:27.741Z,22.00
2022-11-06T08:34:29.961Z,22.17
2022-11-06T08:39:32.251Z,17.08
2022-11-06T08:44:34.735Z,15.18
2022-11-06T08:49:36.883Z,16.42
2022-11-06T08:54:39.215Z,13.50
2022-11-06T08:59:41.463Z,15.70
2022-11-06T09:04:43.693Z,13.95
2022-11-06T09:09:45.926Z,10.80
2022-11-06T09:14:48.146Z,10.00
2022-11-06T09:19:54.507Z,9.68
2022-11-06T09:25:03.769Z,13.57
2022-11-06T09:30:07.135Z,12.23
2022-11-06T09:35:09.785Z,11.48
2022-11-06T09:40:36.934Z,15.98
2022-11-06T09:45:41.513Z,12.15
2022-11-06T09:51:01.665Z,13.55
2022-11-06T09:56:06.924Z,12.55
2022-11-06T10:01:27.230Z,10.65
2022-11-06T10:06:30.700Z,13.13
2022-11-06T10:11:59.493Z,7.75
2022-11-06T10:17:18.888Z,10.10
2022-11-06T10:22:40.407Z,6.10
2022-11-06T10:27:59.893Z,9.60
2022-11-06T10:33:22.996Z,6.25
2022-11-06T10:38:41.527Z,8.80
2022-11-06T10:44:00.980Z,8.55
2022-11-06T10:49:12.194Z,10.48
2022-11-06T10:54:39.317Z,7.72
2022-11-06T10:59:41.907Z,14.85
2022-11-06T11:04:44.486Z,9.68
2022-11-06T11:09:49.945Z,55.67
2022-11-06T11:15:26.380Z,59.00
2022-11-06T11:20:34.420Z,32.92
2022-11-06T11:25:36.943Z,23.52
2022-11-06T11:30:39.275Z,38.47
2022-11-06T11:35:47.793Z,43.97
2022-11-06T11:40:51.979Z,61.45
2022-11-06T11:46:18.375Z,27.17
2022-11-06T11:51:31.363Z,17.25
2022-11-06T11:57:04.134Z,33.30
2022-11-06T12:02:03.109Z,19.50
2022-11-06T12:07:22.877Z,20.38
2022-11-06T12:12:31.570Z,24.33
2022-11-06T12:17:37.828Z,18.70
2022-11-06T12:22:44.819Z,12.52
2022-11-06T12:27:58.329Z,13.10
2022-11-06T12:33:11.898Z,12.98
2022-11-06T12:38:46.785Z,11.00
2022-11-06T12:43:50.979Z,11.25
2022-11-06T12:49:20.774Z,16.52
2022-11-06T12:54:34.854Z,13.38
2022-11-06T13:00:11.346Z,7.53
2022-11-06T13:05:18.754Z,11.35
2022-11-06T13:10:39.636Z,16.40
2022-11-06T13:16:04.042Z,18.40
2022-11-06T13:21:21.891Z,13.05
2022-11-06T13:26:54.368Z,16.15
2022-11-06T13:32:01.960Z,14.30
2022-11-06T13:37:13.155Z,15.60
2022-11-06T13:42:27.931Z,15.27
2022-11-06T13:48:09.105Z,12.45
2022-11-06T13:53:38.097Z,11.63
2022-11-06T13:58:40.402Z,13.75
2022-11-06T14:04:16.301Z,13.40
2022-11-06T14:09:23.122Z,13.63
2022-11-06T14:14:30.038Z,12.85
2022-11-06T14:19:32.601Z,17.67
2022-11-06T14:24:44.684Z,15.63
2022-11-06T14:30:07.388Z,16.95
2022-11-06T14:35:31.578Z,20.95
2022-11-06T14:40:33.991Z,15.02
2022-11-06T14:45:36.448Z,18.88
2022-11-06T14:50:42.172Z,15.82
2022-11-06T14:55:56.415Z,12.63
2022-11-06T15:01:10.791Z,17.60
2022-11-06T15:06:19.145Z,19.05
2022-11-06T15:11:30.503Z,21.95
2022-11-06T15:16:45.921Z,25.40
2022-11-06T15:21:55.621Z,19.85
2022-11-06T15:27:05.361Z,15.10
2022-11-06T15:37:24.059Z,10.55
2022-11-06T15:42:32.359Z,9.35
2022-11-06T15:47:37.364Z,11.50
2022-11-06T15:52:40.588Z,5.88
2022-11-06T15:57:43.045Z,9.60
2022-11-06T16:03:11.824Z,14.32
2022-11-06T16:08:16.611Z,8.02
2022-11-06T16:13:22.476Z,13.75
2022-11-06T16:18:33.797Z,14.15
2022-11-06T16:23:49.867Z,9.48
2022-11-06T16:28:55.241Z,16.55
2022-11-06T16:34:02.970Z,21.65
2022-11-06T16:39:48.120Z,16.88
2022-11-06T16:45:02.230Z,13.52
2022-11-06T16:50:24.729Z,14.20
2022-11-06T16:55:33.512Z,13.98
2022-11-06T17:00:35.929Z,24.37
2022-11-06T17:05:39.371Z,17.10
2022-11-06T17:10:43.317Z,19.27
2022-11-06T17:15:57.950Z,15.15
2022-11-06T17:21:02.970Z,17.92
2022-11-06T17:26:41.385Z,13.48
2022-11-06T17:31:43.781Z,16.05
2022-11-06T17:36:46.014Z,12.90
2022-11-06T17:41:48.463Z,14.63
2022-11-06T17:46:51.379Z,14.57
2022-11-06T17:51:58.625Z,15.65
2022-11-06T17:57:03.586Z,17.92
2022-11-06T18:02:07.694Z,22.55
2022-11-06T18:07:10.040Z,23.15
2022-11-06T18:12:15.667Z,20.15
2022-11-06T18:17:18.293Z,18.20
2022-11-06T18:22:20.516Z,15.25
2022-11-06T18:27:22.728Z,18.50
2022-11-06T18:32:25.110Z,17.25
2022-11-06T18:37:27.590Z,17.17
2022-11-06T18:42:29.805Z,16.02
2022-11-06T18:47:32.076Z,10.93
2022-11-06T18:52:56.501Z,11.90
2022-11-06T18:57:57.048Z,13.30
2022-11-06T19:02:59.531Z,12.05
2022-11-06T19:08:03.518Z,9.23
2022-11-06T19:13:05.828Z,16.50
2022-11-06T19:18:08.050Z,14.05
2022-11-06T19:23:14.886Z,9.27
2022-11-06T19:28:18.391Z,9.02
2022-11-06T19:33:21.513Z,17.77
2022-11-06T19:38:23.894Z,16.35
2022-11-06T19:43:26.321Z,14.23
2022-11-06T19:48:28.615Z,11.63
2022-11-06T19:53:30.842Z,15.65
2022-11-06T19:58:33.111Z,13.35
2022-11-06T20:03:36.545Z,13.40
2022-11-06T20:08:39.325Z,15.35
2022-11-06T20:13:42.844Z,18.20
2022-11-06T20:18:50.950Z,11.88
2022-11-06T20:23:53.312Z,16.35
2022-11-06T20:28:55.546Z,19.33
2022-11-06T20:34:00.317Z,22.98
2022-11-06T20:39:03.880Z,12.05
2022-11-06T20:44:06.370Z,28.10
2022-11-06T20:49:08.999Z,15.80
2022-11-06T20:54:11.323Z,11.60
2022-11-06T20:59:15.138Z,9.02
2022-11-06T21:04:17.363Z,7.40
2022-11-06T21:09:19.742Z,7.40
2022-11-06T21:14:22.428Z,8.27
2022-11-06T21:19:25.174Z,4.22
2022-11-06T21:24:27.445Z,3.38
2022-11-06T21:29:29.761Z,3.88
2022-11-06T21:34:32.240Z,4.97
2022-11-06T21:39:36.533Z,7.78
2022-11-06T21:44:39.084Z,22.65
2022-11-06T21:49:41.352Z,24.55
2022-11-06T21:55:09.597Z,12.85
2022-11-06T22:00:14.412Z,8.95
2022-11-06T22:05:17.485Z,6.60
2022-11-06T22:10:19.761Z,6.50
2022-11-06T22:15:22.133Z,12.10
2022-11-06T22:20:24.355Z,3.08
2022-11-06T22:25:26.752Z,3.53
2022-11-06T22:30:28.978Z,3.38
2022-11-06T22:35:31.229Z,3.85
2022-11-06T22:40:33.471Z,2.60
2022-11-06T22:45:35.687Z,3.00
2022-11-06T22:50:38.087Z,4.28
2022-11-06T22:55:40.474Z,2.17
2022-11-06T23:00:42.702Z,4.35
2022-11-06T23:05:45.199Z,4.55
2022-11-06T23:10:47.435Z,5.43
2022-11-06T23:15:50.683Z,3.30
2022-11-06T23:20:52.854Z,3.05
2022-11-06T23:25:55.419Z,4.53
2022-11-06T23:30:57.737Z,4.82
2022-11-06T23:35:59.937Z,5.72
2022-11-06T23:41:28.804Z,4.43
2022-11-06T23:46:33.352Z,3.42
2022-11-06T23:51:35.663Z,3.83
2022-11-06T23:56:38.329Z,6.15
